createdAt,value
2022-07-25T00:02:39.679Z,-23891.69
2022-07-25T00:04:42.766Z,-23894.50
2022-07-25T00:06:47.638Z,-23893.56
2022-07-25T00:08:50.407Z,-23893.72
2022-07-25T00:10:53.130Z,-23890.13
2022-07-25T00:12:55.825Z,-23888.72
2022-07-25T00:14:58.534Z,-23887.78
2022-07-25T00:17:02.181Z,-23888.25
2022-07-25T00:19:05.195Z,-23887.94
2022-07-25T00:21:07.990Z,-23887.94
2022-07-25T00:23:12.005Z,-23883.53
2022-07-25T00:25:14.938Z,-23877.91
2022-07-25T00:27:17.626Z,-23877.75
2022-07-25T00:29:20.307Z,-23876.66
2022-07-25T00:31:23.152Z,-23875.72
2022-07-25T00:33:25.948Z,-23879.47
2022-07-25T00:35:28.769Z,-23879.47
2022-07-25T00:37:31.430Z,-23878.69
2022-07-25T00:39:35.813Z,-23876.66
2022-07-25T00:41:39.305Z,-23875.09
2022-07-25T00:43:44.128Z,-23871.03
2022-07-25T00:45:46.858Z,-23872.28
2022-07-25T00:47:49.516Z,-23873.69
2022-07-25T00:49:52.227Z,-23871.34
2022-07-25T00:51:55.992Z,-23866.63
2022-07-25T00:53:58.917Z,-23866.63
2022-07-25T00:56:03.038Z,-23867.25
2022-07-25T00:58:05.746Z,-23871.34
2022-07-25T01:00:12.196Z,-23872.59
2022-07-25T01:02:15.061Z,-23869.31
2022-07-25T01:04:18.174Z,-23870.88
2022-07-25T01:06:22.618Z,-23868.84
2022-07-25T01:08:28.328Z,-23863.03
2022-07-25T01:10:31.904Z,-23864.75
2022-07-25T01:12:45.264Z,-23864.13
2022-07-25T01:14:48.028Z,-23865.69
2022-07-25T01:16:50.813Z,-23862.88
2022-07-25T01:18:53.630Z,-23860.38
2022-07-25T01:20:57.652Z,-23861.63
2022-07-25T01:23:01.151Z,-23865.06
2022-07-25T01:25:04.139Z,-23866.31
2022-07-25T01:27:06.852Z,-23868.69
2022-07-25T01:29:09.494Z,-23862.72
2022-07-25T01:31:12.452Z,-23865.06
2022-07-25T01:33:16.805Z,-23865.06
2022-07-25T01:35:19.669Z,-23865.22
2022-07-25T01:37:23.743Z,-23863.19
2022-07-25T01:39:26.398Z,-23865.38
2022-07-25T01:41:29.090Z,-23863.50
2022-07-25T01:43:31.885Z,-23863.81
2022-07-25T01:45:35.006Z,-23866.94
2022-07-25T01:47:37.806Z,-23864.75
2022-07-25T01:49:40.847Z,-23861.47
2022-07-25T01:51:43.514Z,-23862.41
2022-07-25T01:53:47.552Z,-23861.16
2022-07-25T01:55:51.038Z,-23863.19
2022-07-25T01:57:54.887Z,-23859.59
2022-07-25T01:59:57.635Z,-23861.31
2022-07-25T02:02:00.518Z,-23861.47
2022-07-25T02:04:03.552Z,-23860.06
2022-07-25T02:06:09.018Z,-23861.47
2022-07-25T02:08:11.682Z,-23859.44
2022-07-25T02:10:15.770Z,-23861.31
2022-07-25T02:12:18.607Z,-23857.41
2022-07-25T02:14:21.393Z,-23858.34
2022-07-25T02:16:28.890Z,-23859.13
2022-07-25T02:18:32.108Z,-23856.94
2022-07-25T02:20:34.877Z,-23856.78
2022-07-25T02:22:37.656Z,-23857.56
2022-07-25T02:24:40.379Z,-23856.31
2022-07-25T02:26:45.310Z,-23853.47
2022-07-25T02:28:48.035Z,-23853.78
2022-07-25T02:30:50.779Z,-23856.00
2022-07-25T02:32:53.531Z,-23853.47
2022-07-25T02:34:56.674Z,-23853.31
2022-07-25T02:36:59.470Z,-23851.28
2022-07-25T02:39:02.279Z,-23850.97
2022-07-25T02:41:05.876Z,-23851.91
2022-07-25T02:43:10.055Z,-23847.38
2022-07-25T02:45:13.894Z,-23846.91
2022-07-25T02:47:16.577Z,-23848.16
2022-07-25T02:49:19.344Z,-23848.00
2022-07-25T02:51:22.079Z,-23848.47
2022-07-25T02:53:47.119Z,-23844.25
2022-07-25T02:55:47.726Z,-23843.91
2022-07-25T02:57:50.463Z,-23843.28
2022-07-25T02:59:54.469Z,-23841.09
2022-07-25T03:01:57.151Z,-23842.81
2022-07-25T03:03:59.874Z,-23843.63
2022-07-25T03:06:02.624Z,-23841.25
2022-07-25T03:08:05.944Z,-23844.09
2022-07-25T03:10:11.345Z,-23842.50
2022-07-25T03:12:14.472Z,-23843.75
2022-07-25T03:14:17.266Z,-23845.66
2022-07-25T03:16:21.492Z,-23844.72
2022-07-25T03:18:24.207Z,-23844.25
2022-07-25T03:20:26.975Z,-23841.56
2022-07-25T03:22:29.954Z,-23842.50
2022-07-25T03:24:32.615Z,-23844.25
2022-07-25T03:26:35.360Z,-23842.34
2022-07-25T03:28:38.139Z,-23840.63
2022-07-25T03:30:40.781Z,-23839.38
2022-07-25T03:32:44.819Z,-23840.63
2022-07-25T03:34:47.510Z,-23837.50
2022-07-25T03:36:50.170Z,-23837.34
2022-07-25T03:38:52.958Z,-23836.56
2022-07-25T03:40:55.580Z,-23835.00
2022-07-25T03:42:58.672Z,-23835.31
2022-07-25T03:45:01.332Z,-23835.63
2022-07-25T03:47:04.004Z,-23836.88
2022-07-25T03:49:08.219Z,-23837.19
2022-07-25T03:51:10.931Z,-23837.19
2022-07-25T03:53:13.573Z,-23836.09
2022-07-25T03:55:16.299Z,-23836.72
2022-07-25T03:57:18.986Z,-23836.88
2022-07-25T03:59:22.571Z,-23835.31
2022-07-25T04:01:25.363Z,-23836.56
2022-07-25T04:03:29.833Z,-23833.75
2022-07-25T04:05:33.882Z,-23836.88
2022-07-25T04:07:36.575Z,-23839.06
2022-07-25T04:09:39.903Z,-23838.91
2022-07-25T04:11:43.236Z,-23836.88
2022-07-25T04:13:46.077Z,-23837.50
2022-07-25T04:15:48.693Z,-23839.38
2022-07-25T04:17:51.379Z,-23840.78
2022-07-25T04:19:54.749Z,-23837.81
2022-07-25T04:21:58.916Z,-23840.00
2022-07-25T04:24:01.572Z,-23837.50
2022-07-25T04:26:04.601Z,-23842.19
2022-07-25T04:28:07.346Z,-23844.56
2022-07-25T04:30:11.605Z,-23844.41
2022-07-25T04:32:14.727Z,-23845.97
2022-07-25T04:34:17.821Z,-23846.28
2022-07-25T04:36:20.518Z,-23852.06
2022-07-25T04:38:24.767Z,-23866.47
2022-07-25T04:40:27.507Z,-23892.94
2022-07-25T04:42:30.198Z,-23913.88
2022-07-25T04:44:32.830Z,-23925.13
2022-07-25T04:46:36.048Z,-23944.50
2022-07-25T04:48:38.929Z,-23964.00
2022-07-25T04:50:43.880Z,-23953.25
2022-07-25T04:52:46.645Z,-23973.22
2022-07-25T04:54:50.856Z,-23953.25
2022-07-25T04:56:53.487Z,-23916.06
2022-07-25T04:58:59.553Z,-23922.78
2022-07-25T05:01:04.724Z,-23935.59
2022-07-25T05:03:07.408Z,-23945.13
2022-07-25T05:05:21.559Z,-23938.56
2022-07-25T05:07:25.081Z,-23936.06
2022-07-25T05:09:29.618Z,-23936.69
2022-07-25T05:11:33.647Z,-23954.81
2022-07-25T05:13:36.335Z,-23950.91
2022-07-25T05:15:39.025Z,-23950.59
2022-07-25T05:17:41.724Z,-23974.31
2022-07-25T05:19:44.489Z,-23974.63
2022-07-25T05:21:47.150Z,-23958.72
2022-07-25T05:23:50.171Z,-23945.13
2022-07-25T05:25:52.798Z,-23939.50
2022-07-25T05:27:58.588Z,-23932.78
2022-07-25T05:30:01.262Z,-23940.13
2022-07-25T05:32:04.038Z,-23932.63
2022-07-25T05:34:07.287Z,-23919.19
2022-07-25T05:36:10.376Z,-23912.63
2022-07-25T05:38:13.019Z,-23912.63
2022-07-25T05:40:15.720Z,-23908.88
2022-07-25T05:42:18.405Z,-23908.88
2022-07-25T05:44:22.766Z,-23906.38
2022-07-25T05:46:25.776Z,-23906.38
2022-07-25T05:48:28.677Z,-23906.22
2022-07-25T05:50:31.567Z,-23906.06
2022-07-25T05:52:34.266Z,-23915.59
2022-07-25T05:54:37.393Z,-23924.50
2022-07-25T05:56:40.067Z,-23933.41
2022-07-25T05:58:43.328Z,-23938.41
2022-07-25T06:00:47.417Z,-23950.75
2022-07-25T06:02:50.311Z,-23950.28
2022-07-25T06:04:53.064Z,-23957.78
2022-07-25T06:06:55.761Z,-23957.63
2022-07-25T06:08:58.378Z,-23962.31
2022-07-25T06:11:03.879Z,-23958.72
2022-07-25T06:13:07.733Z,-23954.19
2022-07-25T06:15:17.663Z,-23960.75
2022-07-25T06:17:32.052Z,-23959.66
2022-07-25T06:19:35.179Z,-23963.06
2022-07-25T06:21:37.905Z,-23957.47
2022-07-25T06:23:40.655Z,-23980.84
2022-07-25T06:25:43.335Z,-23991.00
2022-07-25T06:27:53.117Z,-23996.91
2022-07-25T06:29:55.908Z,-24018.41
2022-07-25T06:31:58.611Z,-24030.41
2022-07-25T06:34:02.700Z,-24070.03
2022-07-25T06:36:06.412Z,-24073.94
2022-07-25T06:38:09.226Z,-24069.88
2022-07-25T06:40:12.477Z,-24054.19
2022-07-25T06:42:15.356Z,-24048.91
2022-07-25T06:44:19.154Z,-24039.88
2022-07-25T06:46:21.892Z,-24067.72
2022-07-25T06:48:25.181Z,-24050.78
2022-07-25T06:50:29.479Z,-24066.94
2022-07-25T06:52:32.356Z,-24050.16
2022-07-25T06:54:35.823Z,-24066.63
2022-07-25T06:56:38.511Z,-24041.28
2022-07-25T06:58:41.281Z,-24029.63
2022-07-25T07:00:44.123Z,-24046.88
2022-07-25T07:02:52.304Z,-24058.22
2022-07-25T07:04:55.029Z,-24061.03
2022-07-25T07:06:59.068Z,-24066.31
2022-07-25T07:09:01.921Z,-24059.63
2022-07-25T07:11:05.172Z,-24054.34
2022-07-25T07:13:09.661Z,-24075.16
2022-07-25T07:15:13.187Z,-24103.59
2022-07-25T07:17:15.947Z,-24099.38
2022-07-25T07:19:18.881Z,-24095.19
2022-07-25T07:21:21.830Z,-24089.63
2022-07-25T07:23:26.112Z,-24124.53
2022-07-25T07:25:31.928Z,-24140.47
2022-07-25T07:27:34.971Z,-24134.59
2022-07-25T07:29:37.774Z,-24141.56
2022-07-25T07:31:40.939Z,-24146.97
2022-07-25T07:33:43.634Z,-24203.91
2022-07-25T07:35:46.470Z,-24185.06
2022-07-25T07:37:49.246Z,-24126.69
2022-07-25T07:39:53.309Z,-24182.41
2022-07-25T07:41:56.486Z,-24170.34
2022-07-25T07:43:59.247Z,-24168.81
2022-07-25T07:46:02.108Z,-24158.13
2022-07-25T07:48:06.033Z,-24161.38
2022-07-25T07:50:10.565Z,-24166.94
2022-07-25T07:52:13.232Z,-24171.75
2022-07-25T07:54:33.816Z,-24176.25
2022-07-25T07:56:37.847Z,-24183.97
2022-07-25T07:58:40.645Z,-24202.66
2022-07-25T08:00:45.343Z,-24183.66
2022-07-25T08:02:50.282Z,-24189.38
2022-07-25T08:04:53.047Z,-24194.63
2022-07-25T08:06:55.787Z,-24209.78
2022-07-25T08:08:58.546Z,-24210.41
2022-07-25T08:11:01.235Z,-24177.78
2022-07-25T08:13:15.251Z,-24196.19
2022-07-25T08:15:18.756Z,-24228.00
2022-07-25T08:17:25.039Z,-24204.38
2022-07-25T08:19:31.127Z,-24226.75
2022-07-25T08:21:33.855Z,-24237.25
2022-07-25T08:23:38.980Z,-24239.25
2022-07-25T08:25:42.970Z,-24223.84
2022-07-25T08:27:45.992Z,-24226.44
2022-07-25T08:29:50.073Z,-24225.69
2022-07-25T08:31:52.816Z,-24199.75
2022-07-25T08:33:55.527Z,-24227.69
2022-07-25T08:35:59.174Z,-24267.47
2022-07-25T08:38:03.247Z,-24243.44
2022-07-25T08:40:07.186Z,-24269.47
2022-07-25T08:42:11.206Z,-24257.75
2022-07-25T08:44:15.339Z,-24250.81
2022-07-25T08:46:19.570Z,-24288.09
2022-07-25T08:48:23.725Z,-24303.63
2022-07-25T08:50:28.626Z,-24290.88
2022-07-25T08:52:35.189Z,-24252.38
2022-07-25T08:54:38.073Z,-24302.56
2022-07-25T08:56:40.761Z,-24278.56
2022-07-25T08:58:43.861Z,-24246.50
2022-07-25T09:00:47.361Z,-24261.31
2022-07-25T09:02:56.025Z,-24287.19
2022-07-25T09:04:59.617Z,-24284.09
2022-07-25T09:07:08.058Z,-24273.63
2022-07-25T09:09:11.078Z,-24260.38
2022-07-25T09:11:13.826Z,-24253.28
2022-07-25T09:13:17.788Z,-24278.56
2022-07-25T09:15:29.353Z,-24300.25
2022-07-25T09:17:32.310Z,-24302.88
2022-07-25T09:19:36.769Z,-24311.94
2022-07-25T09:21:40.839Z,-24333.31
2022-07-25T09:23:43.533Z,-24266.25
2022-07-25T09:25:46.267Z,-24329.94
2022-07-25T09:27:49.018Z,-24292.09
2022-07-25T09:29:51.751Z,-24312.09
2022-07-25T09:31:55.870Z,-24316.41
2022-07-25T09:34:00.304Z,-24346.81
2022-07-25T09:36:11.980Z,-24353.88
2022-07-25T09:38:16.604Z,-24330.84
2022-07-25T09:40:19.736Z,-24338.84
2022-07-25T09:42:24.317Z,-24305.34
2022-07-25T09:44:30.287Z,-24334.53
2022-07-25T09:46:34.017Z,-24366.00
2022-07-25T09:48:37.125Z,-24301.63
2022-07-25T09:50:40.129Z,-24266.25
2022-07-25T09:52:45.780Z,-24309.34
2022-07-25T09:54:48.560Z,-24329.63
2022-07-25T09:56:51.276Z,-24342.81
2022-07-25T09:58:53.975Z,-24343.75
2022-07-25T10:01:01.832Z,-24330.69
2022-07-25T10:03:19.520Z,-24348.97
2022-07-25T10:05:32.099Z,-24330.38
2022-07-25T10:07:38.317Z,-24308.09
2022-07-25T10:09:45.691Z,-24332.84
2022-07-25T10:12:05.319Z,-24333.31
2022-07-25T10:14:12.161Z,-24329.00
2022-07-25T10:16:20.495Z,-24352.66
2022-07-25T10:18:25.496Z,-24341.13
2022-07-25T10:20:29.915Z,-24325.78
2022-07-25T10:22:59.051Z,-24387.91
2022-07-25T10:25:11.429Z,-24400.16
2022-07-25T10:27:15.891Z,-24378.88
2022-07-25T10:29:23.074Z,-24357.56
2022-07-25T10:31:29.091Z,-24309.63
2022-07-25T10:33:42.265Z,-24321.00
2022-07-25T10:35:45.705Z,-24323.63
2022-07-25T10:37:52.014Z,-24325.31
2022-07-25T10:39:56.454Z,-24303.47
2022-07-25T10:42:02.743Z,-24283.78
2022-07-25T10:44:06.236Z,-24286.88
2022-07-25T10:46:14.549Z,-24296.25
2022-07-25T10:48:23.126Z,-24309.03
2022-07-25T10:50:53.283Z,-24299.50
2022-07-25T10:52:59.566Z,-24285.63
2022-07-25T10:55:02.734Z,-24260.38
2022-07-25T10:57:16.331Z,-24296.72
2022-07-25T10:59:30.930Z,-24289.34
2022-07-25T11:01:35.686Z,-24290.56
2022-07-25T11:03:38.517Z,-24275.47
2022-07-25T11:05:47.843Z,-24284.09
2022-07-25T11:08:18.863Z,-24274.72
2022-07-25T11:10:15.504Z,-24277.47
2022-07-25T11:12:19.624Z,-24288.41
2022-07-25T11:14:25.179Z,-24288.56
2022-07-25T11:16:28.313Z,-24281.78
2022-07-25T11:18:36.411Z,-24292.09
2022-07-25T11:20:39.154Z,-24316.25
2022-07-25T11:22:41.886Z,-24301.03
2022-07-25T11:24:46.458Z,-24264.09
2022-07-25T11:26:50.593Z,-24267.78
2022-07-25T11:28:54.686Z,-24285.47
2022-07-25T11:31:04.476Z,-24259.00
2022-07-25T11:33:07.398Z,-24265.16
2022-07-25T11:35:11.292Z,-24273.94
2022-07-25T11:37:14.589Z,-24274.56
2022-07-25T11:39:18.981Z,-24281.63
2022-07-25T11:41:29.955Z,-24281.03
2022-07-25T11:43:32.722Z,-24277.31
2022-07-25T11:45:39.303Z,-24300.41
2022-07-25T11:47:42.118Z,-24299.81
2022-07-25T11:49:46.232Z,-24310.72
2022-07-25T11:51:48.907Z,-24329.94
2022-07-25T11:53:52.786Z,-24319.63
2022-07-25T11:55:55.488Z,-24329.63
2022-07-25T11:58:01.128Z,-24345.91
2022-07-25T12:00:09.287Z,-24334.22
2022-07-25T12:02:22.616Z,-24316.09
2022-07-25T12:04:25.449Z,-24323.16
2022-07-25T12:06:30.651Z,-24324.41
2022-07-25T12:08:39.451Z,-24321.94
2022-07-25T12:10:43.704Z,-24321.63
2022-07-25T12:12:49.601Z,-24294.09
2022-07-25T12:14:52.590Z,-24302.72
2022-07-25T12:16:55.608Z,-24300.72
2022-07-25T12:18:59.721Z,-24321.16
2022-07-25T12:21:02.414Z,-24319.47
2022-07-25T12:23:06.908Z,-24304.88
2022-07-25T12:25:10.744Z,-24299.81
2022-07-25T12:27:13.446Z,-24297.81
2022-07-25T12:29:16.112Z,-24286.56
2022-07-25T12:31:19.163Z,-24300.25
2022-07-25T12:33:21.890Z,-24317.63
2022-07-25T12:35:26.950Z,-24320.25
2022-07-25T12:37:29.782Z,-24322.09
2022-07-25T12:39:33.550Z,-24319.19
2022-07-25T12:41:36.507Z,-24309.94
2022-07-25T12:43:39.246Z,-24339.44
2022-07-25T12:45:42.650Z,-24312.72
2022-07-25T12:47:46.455Z,-24306.56
2022-07-25T12:49:49.183Z,-24313.47
2022-07-25T12:51:57.909Z,-24289.63
2022-07-25T12:54:00.953Z,-24285.03
2022-07-25T12:56:03.721Z,-24271.78
2022-07-25T12:58:06.475Z,-24268.53
2022-07-25T13:00:12.870Z,-24272.72
2022-07-25T13:02:16.066Z,-24255.44
2022-07-25T13:04:18.801Z,-24240.03
2022-07-25T13:06:21.635Z,-24233.72
2022-07-25T13:08:25.934Z,-24237.88
2022-07-25T13:10:28.741Z,-24237.72
2022-07-25T13:12:32.085Z,-24230.94
2022-07-25T13:14:34.875Z,-24240.34
2022-07-25T13:16:38.366Z,-24244.34
2022-07-25T13:18:41.128Z,-24261.16
2022-07-25T13:20:43.842Z,-24267.31
2022-07-25T13:22:46.579Z,-24281.94
2022-07-25T13:24:50.851Z,-24295.50
2022-07-25T13:26:53.589Z,-24283.34
2022-07-25T13:28:59.807Z,-24292.41
2022-07-25T13:31:05.765Z,-24282.25
2022-07-25T13:33:09.959Z,-24270.84
2022-07-25T13:35:15.365Z,-24264.38
2022-07-25T13:37:20.608Z,-24264.09
2022-07-25T13:39:23.293Z,-24249.91
2022-07-25T13:41:27.768Z,-24264.53
2022-07-25T13:43:30.414Z,-24249.13
2022-07-25T13:45:33.241Z,-24257.91
2022-07-25T13:47:36.440Z,-24256.53
2022-07-25T13:49:39.170Z,-24256.69
2022-07-25T13:51:41.804Z,-24255.75
2022-07-25T13:53:45.761Z,-24254.69
2022-07-25T13:55:48.876Z,-24267.63
2022-07-25T13:57:52.878Z,-24258.38
2022-07-25T13:59:55.549Z,-24247.44
2022-07-25T14:01:58.313Z,-24255.28
2022-07-25T14:04:01.121Z,-24244.97
2022-07-25T14:06:04.095Z,-24246.81
2022-07-25T14:08:07.516Z,-24238.81
2022-07-25T14:10:11.137Z,-24237.88
2022-07-25T14:12:13.839Z,-24240.34
2022-07-25T14:14:18.191Z,-24224.44
2022-07-25T14:16:21.166Z,-24226.13
2022-07-25T14:18:23.818Z,-24219.19
2022-07-25T14:20:27.155Z,-24215.97
2022-07-25T14:22:29.989Z,-24215.97
2022-07-25T14:24:32.669Z,-24212.56
2022-07-25T14:26:35.885Z,-24207.00
2022-07-25T14:28:38.592Z,-24200.50
2022-07-25T14:30:42.693Z,-24196.81
2022-07-25T14:32:45.429Z,-24199.13
2022-07-25T14:34:48.062Z,-24206.22
2022-07-25T14:36:51.044Z,-24220.13
2022-07-25T14:38:53.731Z,-24228.75
2022-07-25T14:40:56.920Z,-24238.81
2022-07-25T14:42:59.619Z,-24244.34
2022-07-25T14:45:02.318Z,-24237.88
2022-07-25T14:47:10.446Z,-24227.53
2022-07-25T14:49:15.553Z,-24237.25
2022-07-25T14:51:19.848Z,-24250.81
2022-07-25T14:53:22.578Z,-24236.94
2022-07-25T14:55:25.746Z,-24234.47
2022-07-25T14:57:28.773Z,-24244.97
2022-07-25T14:59:31.473Z,-24236.31
2022-07-25T15:01:34.640Z,-24228.00
2022-07-25T15:03:39.730Z,-24218.59
2022-07-25T15:05:42.710Z,-24221.97
2022-07-25T15:07:45.959Z,-24219.19
2022-07-25T15:09:48.671Z,-24219.03
2022-07-25T15:11:51.530Z,-24217.19
2022-07-25T15:13:54.510Z,-24219.03
2022-07-25T15:15:58.344Z,-24219.50
2022-07-25T15:18:01.122Z,-24205.00
2022-07-25T15:20:06.094Z,-24214.09
2022-07-25T15:22:08.793Z,-24210.69
2022-07-25T15:24:11.808Z,-24215.34
2022-07-25T15:26:14.795Z,-24217.81
2022-07-25T15:28:17.579Z,-24208.38
2022-07-25T15:30:20.401Z,-24204.06
2022-07-25T15:32:23.108Z,-24198.03
2022-07-25T15:34:26.165Z,-24203.13
2022-07-25T15:36:30.428Z,-24206.84
2022-07-25T15:38:33.401Z,-24198.97
2022-07-25T15:40:36.138Z,-24203.28
2022-07-25T15:42:39.908Z,-24196.81
2022-07-25T15:44:42.807Z,-24196.19
2022-07-25T15:46:46.292Z,-24189.69
2022-07-25T15:48:50.109Z,-24183.34
2022-07-25T15:50:52.941Z,-24189.53
2022-07-25T15:52:57.068Z,-24169.44
2022-07-25T15:55:00.138Z,-24171.13
2022-07-25T15:57:02.963Z,-24156.44
2022-07-25T15:59:06.210Z,-24152.72
2022-07-25T16:01:09.281Z,-24156.75
2022-07-25T16:03:13.847Z,-24138.00
2022-07-25T16:05:16.958Z,-24137.53
2022-07-25T16:07:19.707Z,-24135.84
2022-07-25T16:09:25.386Z,-24136.75
2022-07-25T16:11:28.141Z,-24141.56
2022-07-25T16:13:30.930Z,-24131.34
2022-07-25T16:15:33.756Z,-24128.38
2022-07-25T16:17:38.068Z,-24124.06
2022-07-25T16:19:40.750Z,-24123.75
2022-07-25T16:21:43.517Z,-24127.16
2022-07-25T16:23:46.433Z,-24130.56
2022-07-25T16:25:50.521Z,-24124.38
2022-07-25T16:27:53.337Z,-24124.69
2022-07-25T16:29:56.603Z,-24130.09
2022-07-25T16:31:59.358Z,-24131.19
2022-07-25T16:34:02.073Z,-24133.03
2022-07-25T16:36:05.348Z,-24137.53
2022-07-25T16:38:08.135Z,-24140.16
2022-07-25T16:40:14.834Z,-24138.94
2022-07-25T16:42:18.901Z,-24135.69
2022-07-25T16:44:23.656Z,-24135.06
2022-07-25T16:46:28.574Z,-24137.38
2022-07-25T16:48:31.883Z,-24146.22
2022-07-25T16:50:34.621Z,-24139.56
2022-07-25T16:52:37.605Z,-24134.44
2022-07-25T16:54:40.292Z,-24134.13
2022-07-25T16:56:43.621Z,-24137.06
2022-07-25T16:58:47.986Z,-24129.94
2022-07-25T17:00:50.695Z,-24134.91
2022-07-25T17:02:55.008Z,-24138.31
2022-07-25T17:04:57.794Z,-24136.75
2022-07-25T17:07:00.619Z,-24136.75
2022-07-25T17:09:03.348Z,-24146.38
2022-07-25T17:11:06.856Z,-24144.81
2022-07-25T17:13:09.825Z,-24146.38
2022-07-25T17:15:14.114Z,-24154.41
2022-07-25T17:17:16.795Z,-24161.69
2022-07-25T17:19:19.487Z,-24158.75
2022-07-25T17:21:22.348Z,-24156.59
2022-07-25T17:23:25.444Z,-24156.13
2022-07-25T17:25:28.283Z,-24151.94
2022-07-25T17:27:31.135Z,-24144.50
2022-07-25T17:29:33.908Z,-24137.38
2022-07-25T17:31:38.002Z,-24137.22
2022-07-25T17:33:40.740Z,-24131.19
2022-07-25T17:35:43.384Z,-24134.28
2022-07-25T17:37:46.459Z,-24130.56
2022-07-25T17:39:49.207Z,-24124.06
2022-07-25T17:41:52.019Z,-24126.06
2022-07-25T17:43:54.676Z,-24125.91
2022-07-25T17:45:57.537Z,-24116.91
2022-07-25T17:48:01.819Z,-24117.53
2022-07-25T17:50:05.430Z,-24118.94
2022-07-25T17:52:08.094Z,-24129.31
2022-07-25T17:54:11.037Z,-24125.75
2022-07-25T17:56:13.964Z,-24120.03
2022-07-25T17:58:16.673Z,-24111.97
2022-07-25T18:00:21.170Z,-24119.09
2022-07-25T18:02:24.238Z,-24112.25
2022-07-25T18:04:29.734Z,-24112.56
2022-07-25T18:06:32.815Z,-24102.50
2022-07-25T18:08:36.014Z,-24101.09
2022-07-25T18:10:38.714Z,-24095.81
2022-07-25T18:12:41.382Z,-24094.88
2022-07-25T18:14:44.060Z,-24093.34
2022-07-25T18:16:46.901Z,-24092.25
2022-07-25T18:18:49.652Z,-24086.50
2022-07-25T18:20:53.681Z,-24084.03
2022-07-25T18:22:58.547Z,-24077.34
2022-07-25T18:25:01.225Z,-24079.66
2022-07-25T18:27:05.664Z,-24080.75
2022-07-25T18:29:09.545Z,-24072.53
2022-07-25T18:31:12.504Z,-24067.25
2022-07-25T18:33:16.556Z,-24063.22
2022-07-25T18:35:19.278Z,-24057.94
2022-07-25T18:37:23.386Z,-24059.78
2022-07-25T18:39:26.129Z,-24051.09
2022-07-25T18:41:30.144Z,-24048.13
2022-07-25T18:43:33.169Z,-24049.06
2022-07-25T18:45:37.328Z,-24044.84
2022-07-25T18:47:40.325Z,-24042.69
2022-07-25T18:49:43.038Z,-24043.47
2022-07-25T18:51:45.749Z,-24041.91
2022-07-25T18:53:49.827Z,-24035.38
2022-07-25T18:55:52.510Z,-24033.97
2022-07-25T18:57:55.213Z,-24029.16
2022-07-25T19:00:02.601Z,-24033.34
2022-07-25T19:02:06.350Z,-24029.78
2022-07-25T19:04:09.354Z,-24027.28
2022-07-25T19:06:12.845Z,-24016.38
2022-07-25T19:08:16.382Z,-24019.03
2022-07-25T19:10:20.666Z,-24016.22
2022-07-25T19:12:26.187Z,-24017.47
2022-07-25T19:14:30.490Z,-24018.72
2022-07-25T19:16:33.621Z,-24011.09
2022-07-25T19:18:36.432Z,-24011.88
2022-07-25T19:20:39.507Z,-24009.22
2022-07-25T19:22:42.276Z,-24008.44
2022-07-25T19:24:45.128Z,-24005.31
2022-07-25T19:26:49.777Z,-24002.38
2022-07-25T19:28:52.470Z,-24002.38
2022-07-25T19:30:55.212Z,-23998.78
2022-07-25T19:32:57.916Z,-23997.53
2022-07-25T19:35:00.693Z,-24000.66
2022-07-25T19:37:03.556Z,-23996.59
2022-07-25T19:39:07.052Z,-23993.19
2022-07-25T19:41:09.985Z,-23997.69
2022-07-25T19:43:14.047Z,-23995.34
2022-07-25T19:45:16.740Z,-23996.28
2022-07-25T19:47:19.647Z,-23996.28
2022-07-25T19:49:22.335Z,-23989.44
2022-07-25T19:51:25.044Z,-23988.97
2022-07-25T19:53:28.773Z,-23990.84
2022-07-25T19:55:31.847Z,-23984.75
2022-07-25T19:57:34.528Z,-23982.25
2022-07-25T19:59:38.596Z,-23983.97
2022-07-25T20:01:41.531Z,-23984.59
2022-07-25T20:03:44.296Z,-23979.94
2022-07-25T20:05:46.981Z,-23978.84
2022-07-25T20:07:49.655Z,-23974.94
2022-07-25T20:09:52.430Z,-23974.16
2022-07-25T20:11:56.133Z,-23979.44
2022-07-25T20:13:58.952Z,-23977.91
2022-07-25T20:16:03.828Z,-23975.09
2022-07-25T20:18:06.781Z,-23972.59
2022-07-25T20:20:10.488Z,-23972.44
2022-07-25T20:22:13.536Z,-23971.81
2022-07-25T20:24:21.153Z,-23970.25
2022-07-25T20:26:24.282Z,-23968.53
2022-07-25T20:28:27.023Z,-23970.56
2022-07-25T20:30:34.464Z,-23967.28
2022-07-25T20:32:39.065Z,-23972.28
2022-07-25T20:34:41.763Z,-23974.16
2022-07-25T20:36:44.432Z,-23970.56
2022-07-25T20:38:47.229Z,-23964.78
2022-07-25T20:40:51.159Z,-23966.38
2022-07-25T20:42:53.965Z,-23966.38
2022-07-25T20:44:57.364Z,-23962.59
2022-07-25T20:47:00.153Z,-23966.38
2022-07-25T20:49:04.482Z,-23958.56
2022-07-25T20:51:07.690Z,-23959.66
2022-07-25T20:53:10.931Z,-23959.50
2022-07-25T20:55:13.673Z,-23952.00
2022-07-25T20:57:16.388Z,-23948.72
2022-07-25T20:59:19.077Z,-23956.06
2022-07-25T21:01:22.017Z,-23951.22
2022-07-25T21:03:24.880Z,-23954.34
2022-07-25T21:05:29.227Z,-23948.88
2022-07-25T21:07:31.942Z,-23944.19
2022-07-25T21:09:34.637Z,-23950.44
2022-07-25T21:11:37.787Z,-23943.56
2022-07-25T21:13:40.592Z,-23947.63
2022-07-25T21:15:43.348Z,-23946.38
2022-07-25T21:17:46.042Z,-23942.94
2022-07-25T21:19:48.749Z,-23940.75
2022-07-25T21:21:53.196Z,-23937.31
2022-07-25T21:23:55.876Z,-23940.13
2022-07-25T21:25:58.610Z,-23942.78
2022-07-25T21:28:01.274Z,-23940.75
2022-07-25T21:30:05.467Z,-23941.38
2022-07-25T21:32:09.192Z,-23939.19
2022-07-25T21:34:11.918Z,-23936.06
2022-07-25T21:36:14.590Z,-23937.00
2022-07-25T21:38:27.291Z,-23939.50
2022-07-25T21:40:31.127Z,-23934.50
2022-07-25T21:42:33.903Z,-23930.44
2022-07-25T21:44:36.697Z,-23930.91
2022-07-25T21:46:39.352Z,-23928.72
2022-07-25T21:48:59.846Z,-23931.69
2022-07-25T21:51:02.612Z,-23929.03
2022-07-25T21:53:13.373Z,-23930.13
2022-07-25T21:55:17.583Z,-23929.34
2022-07-25T21:57:20.346Z,-23927.00
2022-07-25T21:59:22.999Z,-23926.53
2022-07-25T22:01:25.839Z,-23923.72
2022-07-25T22:03:28.600Z,-23925.13
2022-07-25T22:05:31.457Z,-23926.25
2022-07-25T22:07:34.171Z,-23926.25
2022-07-25T22:09:37.017Z,-23921.38
2022-07-25T22:11:46.006Z,-23919.97
2022-07-25T22:13:49.349Z,-23922.78
2022-07-25T22:15:52.079Z,-23924.22
2022-07-25T22:17:54.748Z,-23924.84
2022-07-25T22:19:57.415Z,-23916.69
2022-07-25T22:22:00.131Z,-23913.09
2022-07-25T22:24:02.816Z,-23915.75
2022-07-25T22:26:05.529Z,-23910.13
2022-07-25T22:28:09.599Z,-23910.75
2022-07-25T22:30:19.447Z,-23908.25
2022-07-25T22:32:22.389Z,-23912.31
2022-07-25T22:34:25.080Z,-23908.88
2022-07-25T22:36:27.764Z,-23909.19
2022-07-25T22:38:30.411Z,-23906.69
2022-07-25T22:40:33.113Z,-23912.63
2022-07-25T22:42:35.738Z,-23909.66
2022-07-25T22:44:39.765Z,-23913.25
2022-07-25T22:46:42.618Z,-23915.91
2022-07-25T22:48:45.347Z,-23902.16
2022-07-25T22:50:48.554Z,-23907.94
2022-07-25T22:52:51.455Z,-23905.44
2022-07-25T22:54:54.064Z,-23907.16
2022-07-25T22:56:56.908Z,-23904.03
2022-07-25T22:58:59.766Z,-23905.44
2022-07-25T23:01:03.843Z,-23908.09
2022-07-25T23:03:06.601Z,-23906.38
2022-07-25T23:05:10.257Z,-23905.91
2022-07-25T23:07:12.923Z,-23909.19
2022-07-25T23:09:15.708Z,-23903.25
2022-07-25T23:11:18.702Z,-23904.81
2022-07-25T23:13:21.394Z,-23903.25
2022-07-25T23:15:24.069Z,-23900.75
2022-07-25T23:17:32.273Z,-23904.97
2022-07-25T23:19:34.952Z,-23900.44
2022-07-25T23:21:37.629Z,-23907.31
2022-07-25T23:23:41.908Z,-23907.78
2022-07-25T23:25:44.696Z,-23907.16
2022-07-25T23:27:47.347Z,-23903.72
2022-07-25T23:29:50.052Z,-23905.44
2022-07-25T23:31:52.739Z,-23908.25
2022-07-25T23:33:56.785Z,-23904.97
2022-07-25T23:35:59.584Z,-23908.41